This is the latest recevied weather packets stored in our database for station/object SQ7IQO. If no packets are shown the sender has not sent any weather packets the latest 10 day(s).
| Time | Temp. | Humidity | Pressure | Rain* | Wind** | Luminosity | Snow |
|---|---|---|---|---|---|---|---|
| 1787568895 | 15° C | 86% | 1022.4 hPa | 0 mm | 0.89 m/s, ° | - | - |
| 1787568835 | 15° C | 87% | 1016.7 hPa | 0 mm | 0.89 m/s, ° | - | - |
| 1787568775 | 15° C | 86% | 1024.2 hPa | 0 mm | 0.89 m/s, ° | - | - |
| 1787568715 | 15° C | 87% | 1022.4 hPa | 0 mm | 1.34 m/s, ° | - | - |
| 1787568655 | 15° C | 87% | 1022.5 hPa | 0 mm | 1.34 m/s, ° | - | - |
| 1787568595 | 15° C | 86% | 1022.5 hPa | 0 mm | 1.34 m/s, ° | - | - |
| 1787568535 | 15° C | 87% | 1022.5 hPa | 0 mm | 1.34 m/s, ° | - | - |
| 1787568475 | 14.44° C | 87% | 1273.2 hPa | 0 mm | 0.89 m/s, ° | - | - |
| 1787568415 | 14.44° C | 87% | 1022.5 hPa | 0 mm | 2.24 m/s, ° | - | - |
| 1787568355 | 15° C | 87% | 1022.5 hPa | 0 mm | 1.34 m/s, ° | - | - |
| 1787568295 | 15° C | 87% | 1022.5 hPa | 0 mm | 0.89 m/s, ° | - | - |
| 1787568235 | 14.44° C | 86% | 1022.5 hPa | 0 mm | 1.34 m/s, ° | - | - |
| 1787568175 | 15° C | 86% | 1022.5 hPa | 0 mm | 1.79 m/s, ° | - | - |
| 1787568115 | 15° C | 86% | 1022.5 hPa | 0 mm | 1.79 m/s, ° | - | - |
| 1787568055 | 15° C | 86% | 1022.5 hPa | 0 mm | 0.89 m/s, ° | - | - |
| 1787567995 | 15° C | 86% | 1022.5 hPa | 0 mm | 1.34 m/s, ° | - | - |
| 1787567935 | 14.44° C | 84% | 1022.5 hPa | 0 mm | 1.34 m/s, ° | - | - |
| 1787567875 | 15° C | 84% | 1022.5 hPa | 0 mm | 1.79 m/s, ° | - | - |
| 1787567815 | 15° C | 84% | 1022.5 hPa | 0 mm | 1.34 m/s, ° | - | - |
| 1787567755 | 15° C | 84% | 1022.5 hPa | 0 mm | 0.89 m/s, ° | - | - |
| 1787567695 | 15° C | 84% | 1022.5 hPa | 0 mm | 1.79 m/s, ° | - | - |
| 1787567635 | 15° C | 83% | 1022.5 hPa | 0 mm | 1.34 m/s, ° | - | - |
| 1787567575 | 15° C | 83% | 1022.5 hPa | 0 mm | 1.34 m/s, ° | - | - |
| 1787567515 | 15° C | 82% | 1022.4 hPa | 0 mm | 0.89 m/s, ° | - | - |
| 1787567455 | 15.56° C | 81% | 1022.4 hPa | 0 mm | 0.89 m/s, ° | - | - |
* Rain latest hour (hover to see other rain measurements)
** Current wind speed in m/s (hover to see current wind gust speed)